Detroit, Michigan
Traffic Map
Current Weather Conditions
Detroit, Michigan
Few Clouds
Few Clouds
66°
Feels Like: 66°
Wind Chill: 66° Ceiling: Unl
Heat Index: 66° Visibility: 15mi
Dew Point: 50° Wind: 7mph
Humidity: 56% Direction: 250° (WSW)
Pressure: 30in Gusts: 0mph
Raw Report DataCYQG 291500Z 25006KT 15SM FEW045 FEW100 19/10 A3000 RMK SC1AC1 SLP159
Traffic Incident Summary
Active as of:
Severity:
Category:
InformationThere was an issue retrieving the traffic information for this location. Please try a different location or try again shortly.
Advertisements
Track Severe Weather on mobile